createdAt,value
2022-12-15T00:00:44.598Z,87.29
2022-12-15T00:01:43.575Z,87.43
2022-12-15T00:02:43.696Z,87.43
2022-12-15T00:03:43.703Z,87.54
2022-12-15T00:04:43.532Z,87.65
2022-12-15T00:05:43.604Z,87.61
2022-12-15T00:06:44.557Z,87.71
2022-12-15T00:07:43.504Z,87.82
2022-12-15T00:08:43.595Z,87.82
2022-12-15T00:09:43.495Z,87.82
2022-12-15T00:10:43.476Z,87.93
2022-12-15T00:11:43.472Z,87.93
2022-12-15T00:12:43.456Z,88.03
2022-12-15T00:13:43.531Z,88.03
2022-12-15T00:14:43.431Z,88.03
2022-12-15T00:15:43.499Z,88.03
2022-12-15T00:16:43.400Z,88.03
2022-12-15T00:17:43.390Z,88.03
2022-12-15T00:18:43.434Z,87.93
2022-12-15T00:19:43.419Z,87.82
2022-12-15T00:20:43.339Z,87.71
2022-12-15T00:21:43.352Z,87.82
2022-12-15T00:22:43.360Z,87.82
2022-12-15T00:23:43.342Z,87.82
2022-12-15T00:24:43.378Z,87.93
2022-12-15T00:25:43.324Z,87.93
2022-12-15T00:26:43.323Z,87.93
2022-12-15T00:27:43.291Z,87.93
2022-12-15T00:28:43.318Z,88.03
2022-12-15T00:29:43.319Z,87.93
2022-12-15T00:30:43.259Z,87.93
2022-12-15T00:31:43.290Z,87.93
2022-12-15T00:32:43.299Z,87.82
2022-12-15T00:33:43.247Z,87.82
2022-12-15T00:34:43.278Z,87.71
2022-12-15T00:35:43.207Z,87.61
2022-12-15T00:36:43.199Z,87.50
2022-12-15T00:37:43.212Z,87.40
2022-12-15T00:38:43.208Z,87.33
2022-12-15T00:39:43.179Z,87.33
2022-12-15T00:40:43.227Z,87.33
2022-12-15T00:41:43.156Z,87.43
2022-12-15T00:42:43.144Z,87.65
2022-12-15T00:43:43.127Z,87.71
2022-12-15T00:44:43.196Z,87.75
2022-12-15T00:45:43.169Z,87.71
2022-12-15T00:46:43.126Z,87.75
2022-12-15T00:47:43.105Z,87.75
2022-12-15T00:48:43.126Z,87.96
2022-12-15T00:49:43.068Z,88.03
2022-12-15T00:50:43.060Z,88.13
2022-12-15T00:51:43.057Z,88.24
2022-12-15T00:52:43.046Z,88.35
2022-12-15T00:53:43.070Z,88.35
2022-12-15T00:54:43.094Z,88.35
2022-12-15T00:55:43.002Z,88.35
2022-12-15T00:56:43.041Z,88.35
2022-12-15T00:57:42.992Z,88.24
2022-12-15T00:58:42.974Z,88.13
2022-12-15T00:59:43.024Z,88.18
2022-12-15T01:00:42.954Z,88.18
2022-12-15T01:01:43.023Z,88.18
2022-12-15T01:02:43.223Z,88.18
2022-12-15T01:03:43.040Z,88.18
2022-12-15T01:04:42.958Z,88.07
2022-12-15T01:05:42.902Z,88.07
2022-12-15T01:06:42.915Z,87.96
2022-12-15T01:07:42.898Z,87.96
2022-12-15T01:08:42.870Z,87.86
2022-12-15T01:09:42.921Z,87.75
2022-12-15T01:10:42.920Z,87.75
2022-12-15T01:11:42.848Z,87.79
2022-12-15T01:12:42.891Z,87.79
2022-12-15T01:13:42.834Z,87.79
2022-12-15T01:14:42.811Z,87.79
2022-12-15T01:15:42.923Z,87.79
2022-12-15T01:16:43.253Z,87.86
2022-12-15T01:17:42.837Z,87.86
2022-12-15T01:18:42.771Z,87.86
2022-12-15T01:19:42.773Z,88.01
2022-12-15T01:20:42.810Z,87.90
2022-12-15T01:21:42.750Z,87.90
2022-12-15T01:22:42.731Z,87.90
2022-12-15T01:23:42.720Z,87.90
2022-12-15T01:24:42.709Z,87.90
2022-12-15T01:25:42.697Z,87.79
2022-12-15T01:26:42.770Z,87.79
2022-12-15T01:27:42.686Z,87.79
2022-12-15T01:28:42.719Z,87.79
2022-12-15T01:29:42.656Z,87.79
2022-12-15T01:30:42.660Z,87.79
2022-12-15T01:31:42.714Z,87.79
2022-12-15T01:32:45.992Z,87.79
2022-12-15T01:33:42.745Z,87.79
2022-12-15T01:34:42.627Z,87.79
2022-12-15T01:35:42.636Z,87.90
2022-12-15T01:36:42.591Z,87.90
2022-12-15T01:37:42.586Z,88.01
2022-12-15T01:38:42.557Z,88.04
2022-12-15T01:39:42.556Z,88.04
2022-12-15T01:40:42.587Z,88.15
2022-12-15T01:41:42.575Z,88.15
2022-12-15T01:42:42.526Z,88.36
2022-12-15T01:43:42.512Z,88.32
2022-12-15T01:44:42.535Z,88.43
2022-12-15T01:45:42.607Z,88.53
2022-12-15T01:46:42.522Z,88.64
2022-12-15T01:47:42.491Z,88.75
2022-12-15T01:48:42.466Z,88.85
2022-12-15T01:49:42.583Z,88.85
2022-12-15T01:50:42.460Z,88.96
2022-12-15T01:51:42.429Z,88.96
2022-12-15T01:52:42.422Z,88.96
2022-12-15T01:53:42.455Z,89.06
2022-12-15T01:54:42.400Z,88.96
2022-12-15T01:55:42.430Z,88.96
2022-12-15T01:56:42.391Z,88.96
2022-12-15T01:57:42.371Z,88.85
2022-12-15T01:58:42.373Z,88.85
2022-12-15T01:59:42.393Z,88.85
2022-12-15T02:00:42.458Z,88.96
2022-12-15T02:01:42.419Z,88.81
2022-12-15T02:02:42.386Z,88.81
2022-12-15T02:03:42.332Z,88.85
2022-12-15T02:04:42.342Z,88.85
2022-12-15T02:05:42.399Z,88.81
2022-12-15T02:06:42.330Z,88.92
2022-12-15T02:07:42.274Z,89.03
2022-12-15T02:08:42.291Z,89.13
2022-12-15T02:09:42.269Z,89.23
2022-12-15T02:10:42.270Z,89.23
2022-12-15T02:11:42.229Z,89.34
2022-12-15T02:12:42.219Z,89.34
2022-12-15T02:13:42.210Z,89.34
2022-12-15T02:14:42.230Z,89.34
2022-12-15T02:15:42.188Z,89.34
2022-12-15T02:16:42.266Z,89.34
2022-12-15T02:17:42.196Z,89.34
2022-12-15T02:18:42.162Z,89.30
2022-12-15T02:19:42.166Z,89.30
2022-12-15T02:20:42.157Z,89.30
2022-12-15T02:21:42.118Z,89.30
2022-12-15T02:22:42.168Z,89.30
2022-12-15T02:23:42.143Z,89.30
2022-12-15T02:24:42.097Z,89.20
2022-12-15T02:25:42.137Z,89.09
2022-12-15T02:26:42.067Z,89.03
2022-12-15T02:27:42.069Z,88.92
2022-12-15T02:28:42.046Z,88.92
2022-12-15T02:29:42.027Z,88.92
2022-12-15T02:30:42.080Z,88.92
2022-12-15T02:31:42.054Z,88.92
2022-12-15T02:32:41.997Z,88.92
2022-12-15T02:33:42.015Z,89.03
2022-12-15T02:34:41.985Z,89.03
2022-12-15T02:35:41.966Z,89.20
2022-12-15T02:36:42.015Z,89.30
2022-12-15T02:37:41.949Z,89.40
2022-12-15T02:38:41.954Z,89.40
2022-12-15T02:39:41.925Z,89.40
2022-12-15T02:40:41.923Z,89.30
2022-12-15T02:41:41.905Z,89.23
2022-12-15T02:42:41.943Z,89.23
2022-12-15T02:43:41.902Z,89.13
2022-12-15T02:44:41.894Z,89.13
2022-12-15T02:45:41.945Z,89.03
2022-12-15T02:46:41.853Z,89.03
2022-12-15T02:47:41.959Z,89.13
2022-12-15T02:48:41.884Z,89.13
2022-12-15T02:49:41.842Z,89.23
2022-12-15T02:50:41.811Z,89.23
2022-12-15T02:51:41.804Z,89.23
2022-12-15T02:52:41.843Z,89.34
2022-12-15T02:53:41.791Z,89.34
2022-12-15T02:54:41.822Z,89.40
2022-12-15T02:55:41.762Z,89.51
2022-12-15T02:56:41.788Z,89.51
2022-12-15T02:57:41.751Z,89.62
2022-12-15T02:58:41.781Z,89.72
2022-12-15T02:59:41.730Z,89.72
2022-12-15T03:00:41.729Z,89.69
2022-12-15T03:01:41.870Z,89.69
2022-12-15T03:02:41.863Z,89.69
2022-12-15T03:03:41.729Z,89.69
2022-12-15T03:04:41.672Z,89.58
2022-12-15T03:05:41.662Z,89.58
2022-12-15T03:06:41.669Z,89.58
2022-12-15T03:07:41.640Z,89.47
2022-12-15T03:08:41.735Z,89.47
2022-12-15T03:09:41.628Z,89.47
2022-12-15T03:10:41.608Z,89.47
2022-12-15T03:11:43.257Z,89.47
2022-12-15T03:12:41.588Z,89.40
2022-12-15T03:13:41.607Z,89.40
2022-12-15T03:14:41.623Z,89.30
2022-12-15T03:15:41.554Z,89.30
2022-12-15T03:16:41.603Z,89.20
2022-12-15T03:17:41.535Z,89.09
2022-12-15T03:18:41.535Z,89.03
2022-12-15T03:19:41.537Z,89.03
2022-12-15T03:20:41.505Z,88.92
2022-12-15T03:21:41.506Z,88.92
2022-12-15T03:22:41.486Z,89.03
2022-12-15T03:23:41.474Z,89.23
2022-12-15T03:24:41.466Z,89.30
2022-12-15T03:25:41.606Z,89.51
2022-12-15T03:26:41.446Z,89.62
2022-12-15T03:27:41.445Z,89.72
2022-12-15T03:28:41.522Z,89.83
2022-12-15T03:29:41.416Z,89.83
2022-12-15T03:30:41.405Z,89.72
2022-12-15T03:31:41.868Z,89.72
2022-12-15T03:32:41.394Z,89.72
2022-12-15T03:33:41.373Z,89.62
2022-12-15T03:34:41.385Z,89.66
2022-12-15T03:35:41.354Z,89.62
2022-12-15T03:36:41.383Z,89.66
2022-12-15T03:37:41.363Z,89.72
2022-12-15T03:38:41.322Z,89.72
2022-12-15T03:39:41.361Z,89.83
2022-12-15T03:40:41.324Z,89.83
2022-12-15T03:41:41.302Z,89.83
2022-12-15T03:42:41.281Z,89.94
2022-12-15T03:43:49.753Z,89.94
2022-12-15T03:44:41.278Z,90.04
2022-12-15T03:45:41.267Z,90.04
2022-12-15T03:46:41.283Z,90.15
2022-12-15T03:47:41.224Z,90.15
2022-12-15T03:48:41.221Z,90.11
2022-12-15T03:49:41.246Z,90.21
2022-12-15T03:50:41.206Z,90.21
2022-12-15T03:51:41.196Z,90.21
2022-12-15T03:52:41.188Z,90.32
2022-12-15T03:53:41.204Z,90.32
2022-12-15T03:54:41.165Z,90.21
2022-12-15T03:55:41.152Z,90.21
2022-12-15T03:56:41.143Z,90.21
2022-12-15T03:57:41.128Z,90.21
2022-12-15T03:58:41.129Z,90.11
2022-12-15T03:59:41.144Z,90.11
2022-12-15T04:00:41.101Z,90.00
2022-12-15T04:01:41.169Z,89.89
2022-12-15T04:02:41.157Z,89.79
2022-12-15T04:03:41.219Z,89.79
2022-12-15T04:04:41.102Z,89.79
2022-12-15T04:05:41.126Z,89.69
2022-12-15T04:06:41.040Z,89.69
2022-12-15T04:07:41.020Z,89.58
2022-12-15T04:08:41.048Z,89.62
2022-12-15T04:09:41.054Z,89.51
2022-12-15T04:10:41.014Z,89.51
2022-12-15T04:11:41.005Z,89.51
2022-12-15T04:12:40.975Z,89.40
2022-12-15T04:13:40.968Z,89.51
2022-12-15T04:14:40.980Z,89.51
2022-12-15T04:15:47.758Z,89.51
2022-12-15T04:16:40.995Z,89.51
2022-12-15T04:17:41.008Z,89.62
2022-12-15T04:18:40.917Z,89.83
2022-12-15T04:19:40.920Z,89.89
2022-12-15T04:20:40.935Z,90.11
2022-12-15T04:21:40.898Z,90.11
2022-12-15T04:22:40.882Z,90.11
2022-12-15T04:23:40.885Z,90.11
2022-12-15T04:24:40.891Z,90.11
2022-12-15T04:25:40.883Z,90.11
2022-12-15T04:26:40.867Z,90.11
2022-12-15T04:27:40.842Z,90.11
2022-12-15T04:28:40.944Z,90.11
2022-12-15T04:29:40.817Z,90.00
2022-12-15T04:30:40.891Z,89.89
2022-12-15T04:31:40.820Z,89.69
2022-12-15T04:32:40.812Z,89.62
2022-12-15T04:33:40.813Z,89.51
2022-12-15T04:34:40.784Z,89.40
2022-12-15T04:35:40.830Z,89.40
2022-12-15T04:36:40.755Z,89.40
2022-12-15T04:37:40.729Z,89.51
2022-12-15T04:38:49.913Z,89.51
2022-12-15T04:39:41.759Z,89.51
2022-12-15T04:40:40.732Z,89.62
2022-12-15T04:41:40.743Z,89.69
2022-12-15T04:42:40.680Z,89.69
2022-12-15T04:43:40.836Z,89.79
2022-12-15T04:44:40.678Z,89.89
2022-12-15T04:45:40.670Z,89.89
2022-12-15T04:46:40.722Z,90.00
2022-12-15T04:47:40.664Z,90.00
2022-12-15T04:48:40.643Z,90.00
2022-12-15T04:49:40.600Z,90.00
2022-12-15T04:50:40.611Z,90.00
2022-12-15T04:51:40.583Z,90.00
2022-12-15T04:52:40.740Z,89.89
2022-12-15T04:53:40.613Z,89.89
2022-12-15T04:54:40.590Z,89.79
2022-12-15T04:55:40.549Z,89.69
2022-12-15T04:56:40.551Z,89.58
2022-12-15T04:57:40.531Z,89.58
2022-12-15T04:58:40.669Z,89.58
2022-12-15T04:59:40.509Z,89.58
2022-12-15T05:00:40.596Z,89.58
2022-12-15T05:01:40.645Z,89.47
2022-12-15T05:02:40.593Z,89.40
2022-12-15T05:03:40.487Z,89.30
2022-12-15T05:04:40.481Z,89.20
2022-12-15T05:05:40.479Z,89.09
2022-12-15T05:06:40.497Z,88.98
2022-12-15T05:07:40.446Z,88.92
2022-12-15T05:08:40.479Z,88.92
2022-12-15T05:09:40.398Z,88.81
2022-12-15T05:10:40.498Z,88.81
2022-12-15T05:11:40.378Z,88.81
2022-12-15T05:12:40.387Z,88.81
2022-12-15T05:13:40.375Z,88.81
2022-12-15T05:14:40.384Z,88.81
2022-12-15T05:15:40.456Z,88.71
2022-12-15T05:16:40.442Z,88.71
2022-12-15T05:17:41.831Z,88.71
2022-12-15T05:18:40.325Z,88.71
2022-12-15T05:19:40.297Z,88.75
2022-12-15T05:20:40.344Z,88.75
2022-12-15T05:21:40.326Z,88.75
2022-12-15T05:22:40.378Z,88.75
2022-12-15T05:23:40.274Z,88.75
2022-12-15T05:24:40.281Z,88.85
2022-12-15T05:25:40.266Z,88.85
2022-12-15T05:26:40.274Z,88.85
2022-12-15T05:27:40.243Z,88.85
2022-12-15T05:28:40.275Z,88.96
2022-12-15T05:29:40.202Z,89.06
2022-12-15T05:30:40.294Z,89.28
2022-12-15T05:31:40.203Z,89.45
2022-12-15T05:32:40.192Z,89.98
2022-12-15T05:33:40.243Z,90.30
2022-12-15T05:34:40.147Z,90.40
2022-12-15T05:35:40.132Z,90.67
2022-12-15T05:36:40.135Z,90.78
2022-12-15T05:37:40.223Z,90.89
2022-12-15T05:38:40.132Z,90.89
2022-12-15T05:39:40.112Z,90.99
2022-12-15T05:40:40.120Z,90.89
2022-12-15T05:41:40.111Z,90.89
2022-12-15T05:42:40.137Z,90.78
2022-12-15T05:43:40.099Z,90.67
2022-12-15T05:44:40.038Z,90.57
2022-12-15T05:45:40.089Z,90.57
2022-12-15T05:46:41.386Z,90.61
2022-12-15T05:47:40.039Z,90.61
2022-12-15T05:48:40.027Z,90.61
2022-12-15T05:49:39.997Z,90.50
2022-12-15T05:50:40.017Z,90.40
2022-12-15T05:51:39.968Z,90.40
2022-12-15T05:52:46.219Z,90.33
2022-12-15T05:53:40.957Z,90.33
2022-12-15T05:54:39.988Z,90.33
2022-12-15T05:55:39.927Z,90.33
2022-12-15T05:56:39.997Z,90.33
2022-12-15T05:57:39.985Z,90.33
2022-12-15T05:58:44.810Z,90.33
2022-12-15T05:59:40.883Z,90.33
2022-12-15T06:00:39.886Z,90.44
2022-12-15T06:01:40.023Z,90.44
2022-12-15T06:02:39.918Z,90.33
2022-12-15T06:03:39.934Z,90.33
2022-12-15T06:04:39.936Z,90.44
2022-12-15T06:05:39.824Z,90.44
2022-12-15T06:06:39.884Z,90.55
2022-12-15T06:07:39.841Z,90.65
2022-12-15T06:08:39.818Z,90.65
2022-12-15T06:09:39.855Z,90.76
2022-12-15T06:10:39.814Z,90.76
2022-12-15T06:11:39.785Z,90.86
2022-12-15T06:12:39.816Z,90.93
2022-12-15T06:13:39.785Z,91.03
2022-12-15T06:14:39.817Z,91.14
2022-12-15T06:15:39.751Z,91.35
2022-12-15T06:16:50.783Z,91.46
2022-12-15T06:17:40.693Z,91.52
2022-12-15T06:18:39.752Z,91.52
2022-12-15T06:19:39.682Z,91.42
2022-12-15T06:20:39.671Z,91.42
2022-12-15T06:21:39.673Z,91.52
2022-12-15T06:22:39.644Z,91.52
2022-12-15T06:23:39.654Z,91.48
2022-12-15T06:24:39.662Z,91.48
2022-12-15T06:25:39.722Z,91.38
2022-12-15T06:26:39.631Z,91.38
2022-12-15T06:27:39.633Z,91.27
2022-12-15T06:28:39.600Z,91.16
2022-12-15T06:29:39.852Z,91.20
2022-12-15T06:30:39.575Z,91.10
2022-12-15T06:31:39.641Z,90.99
2022-12-15T06:32:39.568Z,90.89
2022-12-15T06:33:39.554Z,90.78
2022-12-15T06:34:39.539Z,90.67
2022-12-15T06:35:39.548Z,90.47
2022-12-15T06:36:39.506Z,90.40
2022-12-15T06:37:39.530Z,90.30
2022-12-15T06:38:39.501Z,90.19
2022-12-15T06:39:39.571Z,90.08
2022-12-15T06:40:39.475Z,90.08
2022-12-15T06:41:39.545Z,90.19
2022-12-15T06:42:39.445Z,90.30
2022-12-15T06:43:39.514Z,90.72
2022-12-15T06:44:39.419Z,90.78
2022-12-15T06:45:39.438Z,90.89
2022-12-15T06:46:39.469Z,90.99
2022-12-15T06:47:39.436Z,91.10
2022-12-15T06:48:39.405Z,90.99
2022-12-15T06:49:39.388Z,90.78
2022-12-15T06:50:39.362Z,90.72
2022-12-15T06:51:39.557Z,90.72
2022-12-15T06:52:39.364Z,90.61
2022-12-15T06:53:39.360Z,90.61
2022-12-15T06:54:39.315Z,90.72
2022-12-15T06:55:39.324Z,90.72
2022-12-15T06:56:39.335Z,90.78
2022-12-15T06:57:39.341Z,90.89
2022-12-15T06:58:39.300Z,90.99
2022-12-15T06:59:39.318Z,91.10
2022-12-15T07:00:39.294Z,91.20
2022-12-15T07:01:39.541Z,91.42
2022-12-15T07:02:39.642Z,91.59
2022-12-15T07:03:39.938Z,91.69
2022-12-15T07:04:39.229Z,91.80
2022-12-15T07:05:39.244Z,91.80
2022-12-15T07:06:39.203Z,91.69
2022-12-15T07:07:39.183Z,91.74
2022-12-15T07:08:41.693Z,91.63
2022-12-15T07:09:39.234Z,91.52
2022-12-15T07:10:39.167Z,91.42
2022-12-15T07:11:39.225Z,91.25
2022-12-15T07:12:39.175Z,91.20
2022-12-15T07:13:39.158Z,91.14
2022-12-15T07:14:39.105Z,91.14
2022-12-15T07:15:39.113Z,91.03
2022-12-15T07:16:39.291Z,91.03
2022-12-15T07:17:39.142Z,90.93
2022-12-15T07:18:39.118Z,90.82
2022-12-15T07:19:39.080Z,90.72
2022-12-15T07:20:39.103Z,90.72
2022-12-15T07:21:39.069Z,90.61
2022-12-15T07:22:39.044Z,90.50
2022-12-15T07:23:53.926Z,90.40
2022-12-15T07:24:40.107Z,90.40
2022-12-15T07:25:39.000Z,90.30
2022-12-15T07:26:39.059Z,90.30
2022-12-15T07:27:39.020Z,90.30
2022-12-15T07:28:38.979Z,90.30
2022-12-15T07:29:38.993Z,90.30
2022-12-15T07:30:39.298Z,90.19
2022-12-15T07:31:38.973Z,90.19
2022-12-15T07:32:38.954Z,90.19
2022-12-15T07:33:38.958Z,90.08
2022-12-15T07:34:38.907Z,90.08
2022-12-15T07:35:38.956Z,90.08
2022-12-15T07:36:38.890Z,90.08
2022-12-15T07:37:39.072Z,90.19
2022-12-15T07:38:38.874Z,90.30
2022-12-15T07:39:38.856Z,90.50
2022-12-15T07:40:38.865Z,90.67
2022-12-15T07:41:38.852Z,90.89
2022-12-15T07:42:45.720Z,91.06
2022-12-15T07:43:39.212Z,91.06
2022-12-15T07:44:38.821Z,91.06
2022-12-15T07:45:38.837Z,91.16
2022-12-15T07:46:38.974Z,91.06
2022-12-15T07:47:38.806Z,91.06
2022-12-15T07:48:38.767Z,91.02
2022-12-15T07:49:38.793Z,91.02
2022-12-15T07:50:38.796Z,91.02
2022-12-15T07:51:38.742Z,91.02
2022-12-15T07:52:38.725Z,90.91
2022-12-15T07:53:38.724Z,90.81
2022-12-15T07:54:38.694Z,90.70
2022-12-15T07:56:05.597Z,90.59
2022-12-15T07:56:39.743Z,90.49
2022-12-15T07:57:38.663Z,90.38
2022-12-15T07:58:38.670Z,90.28
2022-12-15T07:59:38.645Z,90.17
2022-12-15T08:00:41.618Z,90.17
2022-12-15T08:01:39.774Z,90.17
2022-12-15T08:02:38.827Z,90.06
2022-12-15T08:03:39.454Z,90.06
2022-12-15T08:04:38.677Z,89.96
2022-12-15T08:05:38.614Z,89.86
2022-12-15T08:06:38.589Z,89.75
2022-12-15T08:07:38.582Z,89.64
2022-12-15T08:08:38.614Z,89.54
2022-12-15T08:09:38.591Z,89.54
2022-12-15T08:10:38.567Z,89.43
2022-12-15T08:11:38.551Z,89.43
2022-12-15T08:12:38.537Z,89.43
2022-12-15T08:14:01.949Z,89.43
2022-12-15T08:14:40.247Z,89.43
2022-12-15T08:15:38.528Z,89.54
2022-12-15T08:16:38.590Z,89.64
2022-12-15T08:17:38.472Z,89.64
2022-12-15T08:18:38.500Z,89.75
2022-12-15T08:19:38.540Z,89.81
2022-12-15T08:20:38.473Z,89.92
2022-12-15T08:21:38.464Z,89.92
2022-12-15T08:22:38.476Z,89.92
2022-12-15T08:23:38.419Z,89.92
2022-12-15T08:24:38.399Z,89.88
2022-12-15T08:25:38.459Z,89.88
2022-12-15T08:26:38.427Z,89.88
2022-12-15T08:27:38.397Z,89.77
2022-12-15T08:28:38.403Z,89.77
2022-12-15T08:29:53.810Z,89.67
2022-12-15T08:30:39.341Z,89.67
2022-12-15T08:31:38.391Z,89.56
2022-12-15T08:32:38.318Z,89.61
2022-12-15T08:33:38.298Z,89.61
2022-12-15T08:34:38.284Z,89.50
2022-12-15T08:35:55.099Z,89.50
2022-12-15T08:36:39.356Z,89.46
2022-12-15T08:37:38.268Z,89.46
2022-12-15T08:38:38.251Z,89.46
2022-12-15T08:39:38.247Z,89.56
2022-12-15T08:40:38.225Z,89.77
2022-12-15T08:41:38.247Z,89.98
2022-12-15T08:42:38.237Z,90.09
2022-12-15T08:43:42.582Z,90.16
2022-12-15T08:44:39.205Z,90.26
2022-12-15T08:45:38.209Z,90.26
2022-12-15T08:46:38.167Z,90.37
2022-12-15T08:47:38.169Z,90.37
2022-12-15T08:48:38.230Z,90.47
2022-12-15T08:49:38.153Z,90.47
2022-12-15T08:50:38.156Z,90.47
2022-12-15T08:51:38.114Z,90.33
2022-12-15T08:52:38.130Z,90.33
2022-12-15T08:53:38.101Z,90.33
2022-12-15T08:54:38.086Z,90.33
2022-12-15T08:55:38.083Z,90.33
2022-12-15T08:56:38.126Z,90.33
2022-12-15T08:57:38.055Z,90.22
2022-12-15T08:58:38.044Z,90.22
2022-12-15T08:59:38.040Z,90.18
2022-12-15T09:00:38.014Z,90.28
2022-12-15T09:01:38.055Z,90.39
2022-12-15T09:02:38.170Z,90.50
2022-12-15T09:03:38.027Z,90.60
2022-12-15T09:04:38.050Z,90.60
2022-12-15T09:05:38.054Z,90.60
2022-12-15T09:06:38.101Z,90.60
2022-12-15T09:07:37.942Z,90.60
2022-12-15T09:08:37.943Z,90.60
2022-12-15T09:09:37.940Z,90.77
2022-12-15T09:10:38.088Z,90.88
2022-12-15T09:11:38.003Z,90.88
2022-12-15T09:12:37.901Z,90.88
2022-12-15T09:13:37.891Z,90.88
2022-12-15T09:14:37.883Z,90.88
2022-12-15T09:16:07.555Z,90.88
2022-12-15T09:16:38.906Z,90.88
2022-12-15T09:17:37.853Z,90.88
2022-12-15T09:18:37.931Z,90.88
2022-12-15T09:19:37.831Z,90.88
2022-12-15T09:20:37.817Z,90.98
2022-12-15T09:21:37.837Z,90.98
2022-12-15T09:22:37.831Z,90.94
2022-12-15T09:23:37.781Z,90.94
2022-12-15T09:24:37.812Z,90.94
2022-12-15T09:25:37.787Z,90.94
2022-12-15T09:26:37.747Z,90.94
2022-12-15T09:27:37.747Z,90.83
2022-12-15T09:28:37.735Z,90.83
2022-12-15T09:29:37.766Z,90.83
2022-12-15T09:30:37.851Z,90.94
2022-12-15T09:31:37.697Z,90.94
2022-12-15T09:32:37.692Z,90.90
2022-12-15T09:33:37.702Z,90.90
2022-12-15T09:34:37.721Z,90.90
2022-12-15T09:35:37.658Z,90.90
2022-12-15T09:36:37.654Z,90.90
2022-12-15T09:37:37.662Z,90.90
2022-12-15T09:38:37.627Z,91.00
2022-12-15T09:39:37.655Z,91.00
2022-12-15T09:40:37.604Z,91.00
2022-12-15T09:41:37.598Z,91.00
2022-12-15T09:42:37.586Z,91.00
2022-12-15T09:44:28.623Z,91.07
2022-12-15T09:45:28.571Z,91.07
2022-12-15T09:46:28.652Z,91.07
2022-12-15T09:47:28.542Z,91.07
2022-12-15T09:48:28.563Z,91.17
2022-12-15T09:49:28.530Z,91.17
2022-12-15T09:50:28.561Z,91.17
2022-12-15T09:51:28.520Z,91.07
2022-12-15T09:52:28.500Z,91.07
2022-12-15T09:53:54.192Z,91.07
2022-12-15T09:54:29.517Z,91.13
2022-12-15T09:55:28.470Z,91.03
2022-12-15T09:56:28.663Z,91.03
2022-12-15T09:57:28.455Z,91.03
2022-12-15T09:58:28.438Z,91.03
2022-12-15T09:59:28.420Z,91.03
2022-12-15T10:00:28.411Z,91.03
2022-12-15T10:01:28.431Z,90.92
2022-12-15T10:02:28.512Z,90.92
2022-12-15T10:03:28.566Z,90.92
2022-12-15T10:04:28.488Z,90.92
2022-12-15T10:06:33.069Z,90.82
2022-12-15T10:07:28.347Z,90.82
2022-12-15T10:08:28.359Z,90.67
2022-12-15T10:09:28.340Z,90.56
2022-12-15T10:10:28.388Z,90.46
2022-12-15T10:11:28.346Z,90.46
2022-12-15T10:12:28.357Z,90.46
2022-12-15T10:13:28.759Z,90.46
2022-12-15T10:14:28.298Z,90.46
2022-12-15T10:15:28.292Z,90.36
2022-12-15T10:16:28.295Z,90.36
2022-12-15T10:17:28.235Z,90.25
2022-12-15T10:18:28.267Z,90.14
2022-12-15T10:19:28.206Z,90.04
2022-12-15T10:20:28.206Z,90.04
2022-12-15T10:21:28.204Z,89.94
2022-12-15T10:22:28.195Z,89.83
2022-12-15T10:23:28.232Z,89.72
2022-12-15T10:25:00.338Z,89.72
2022-12-15T10:25:30.709Z,89.83
2022-12-15T10:26:28.145Z,89.83
2022-12-15T10:27:28.131Z,89.89
2022-12-15T10:28:28.165Z,89.89
2022-12-15T10:29:28.146Z,90.00
2022-12-15T10:30:28.184Z,90.00
2022-12-15T10:31:28.134Z,90.00
2022-12-15T10:32:28.084Z,90.00
2022-12-15T10:33:28.762Z,90.00
2022-12-15T10:34:28.185Z,90.00
2022-12-15T10:35:28.058Z,89.89
2022-12-15T10:36:28.095Z,89.89
2022-12-15T10:37:28.022Z,89.89
2022-12-15T10:38:28.027Z,89.96
2022-12-15T10:39:28.052Z,89.96
2022-12-15T10:40:28.004Z,89.96
2022-12-15T10:41:28.044Z,89.96
2022-12-15T10:42:28.001Z,89.86
2022-12-15T10:43:28.429Z,89.75
2022-12-15T10:44:32.243Z,89.64
2022-12-15T10:45:27.962Z,89.54
2022-12-15T10:46:28.031Z,89.43
2022-12-15T10:47:27.952Z,89.43
2022-12-15T10:48:27.912Z,89.43
2022-12-15T10:49:27.900Z,89.22
2022-12-15T10:50:27.890Z,89.12
2022-12-15T10:51:27.891Z,89.12
2022-12-15T10:52:27.879Z,89.01
2022-12-15T10:53:28.049Z,88.97
2022-12-15T10:54:27.909Z,88.87
2022-12-15T10:55:27.869Z,88.76
2022-12-15T10:56:33.275Z,88.55
2022-12-15T10:57:28.818Z,88.34
2022-12-15T10:58:27.820Z,88.13
2022-12-15T10:59:27.797Z,88.13
2022-12-15T11:00:29.543Z,88.02
2022-12-15T11:01:27.929Z,88.02
2022-12-15T11:02:27.975Z,88.13
2022-12-15T11:03:27.925Z,88.13
2022-12-15T11:04:27.806Z,88.13
2022-12-15T11:05:27.787Z,88.13
2022-12-15T11:06:27.734Z,88.02
2022-12-15T11:07:27.717Z,87.88
2022-12-15T11:08:27.716Z,87.99
2022-12-15T11:09:27.686Z,87.88
2022-12-15T11:10:27.749Z,87.67
2022-12-15T11:11:27.668Z,87.57
2022-12-15T11:12:27.666Z,87.46
2022-12-15T11:13:33.107Z,87.46
2022-12-15T11:14:28.655Z,87.36
2022-12-15T11:15:31.525Z,87.25
2022-12-15T11:16:27.627Z,87.15
2022-12-15T11:17:27.621Z,87.04
2022-12-15T11:18:27.629Z,87.04
2022-12-15T11:19:27.594Z,87.04
2022-12-15T11:20:27.668Z,86.94
2022-12-15T11:21:27.603Z,87.00
2022-12-15T11:22:27.565Z,86.90
2022-12-15T11:23:27.597Z,86.69
2022-12-15T11:24:27.574Z,86.58
2022-12-15T11:25:27.535Z,86.58
2022-12-15T11:26:27.537Z,86.58
2022-12-15T11:27:27.553Z,86.69
2022-12-15T11:28:27.504Z,86.58
2022-12-15T11:29:27.521Z,86.47
2022-12-15T11:30:27.482Z,86.37
2022-12-15T11:31:27.472Z,86.37
2022-12-15T11:32:27.463Z,86.37
2022-12-15T11:33:27.508Z,86.47
2022-12-15T11:34:27.451Z,86.58
2022-12-15T11:35:27.463Z,86.69
2022-12-15T11:36:27.445Z,86.58
2022-12-15T11:38:28.455Z,86.33
2022-12-15T11:39:27.400Z,86.23
2022-12-15T11:40:27.372Z,86.12
2022-12-15T11:41:30.573Z,86.02
2022-12-15T11:42:27.363Z,86.02
2022-12-15T11:43:27.352Z,86.02
2022-12-15T11:44:27.343Z,86.02
2022-12-15T11:45:27.340Z,86.02
2022-12-15T11:46:27.378Z,86.08
2022-12-15T11:47:27.365Z,85.98
2022-12-15T11:48:27.291Z,85.98
2022-12-15T11:49:27.279Z,85.98
2022-12-15T11:50:27.269Z,85.98
2022-12-15T11:51:27.280Z,85.88
2022-12-15T11:52:27.304Z,85.88
2022-12-15T11:53:30.637Z,85.88
2022-12-15T11:54:27.237Z,85.98
2022-12-15T11:55:32.083Z,85.98
2022-12-15T11:56:28.218Z,85.98
2022-12-15T11:57:27.208Z,85.94
2022-12-15T11:58:27.188Z,85.73
2022-12-15T11:59:27.180Z,85.63
2022-12-15T12:00:27.177Z,85.42
2022-12-15T12:01:27.270Z,85.21
2022-12-15T12:02:27.275Z,85.00
2022-12-15T12:03:27.178Z,84.68
2022-12-15T12:04:27.134Z,84.47
2022-12-15T12:05:27.110Z,84.16
2022-12-15T12:06:27.107Z,83.74
2022-12-15T12:07:27.088Z,83.42
2022-12-15T12:08:27.136Z,83.42
2022-12-15T12:09:27.075Z,83.42
2022-12-15T12:10:27.111Z,83.42
2022-12-15T12:11:27.105Z,83.32
2022-12-15T12:12:27.036Z,83.22
2022-12-15T12:13:27.035Z,83.11
2022-12-15T12:14:27.078Z,83.22
2022-12-15T12:15:30.133Z,82.90
2022-12-15T12:16:27.078Z,82.34
2022-12-15T12:17:34.366Z,82.27
2022-12-15T12:18:26.985Z,82.34
2022-12-15T12:19:27.001Z,82.34
2022-12-15T12:20:26.946Z,82.03
2022-12-15T12:21:26.952Z,81.60
2022-12-15T12:22:30.334Z,81.29
2022-12-15T12:23:29.109Z,81.29
2022-12-15T12:24:26.903Z,81.29
2022-12-15T12:25:26.945Z,81.19
2022-12-15T12:26:26.905Z,81.19
2022-12-15T12:27:26.904Z,80.98
2022-12-15T12:28:26.882Z,80.98
2022-12-15T12:29:26.872Z,80.98
2022-12-15T12:30:26.873Z,80.77
2022-12-15T12:31:26.962Z,80.77
2022-12-15T12:32:26.834Z,80.73
2022-12-15T12:33:26.821Z,80.83
2022-12-15T12:34:26.802Z,80.73
2022-12-15T12:35:30.788Z,80.52
2022-12-15T12:36:27.823Z,80.42
2022-12-15T12:37:26.782Z,80.31
2022-12-15T12:38:26.764Z,80.31
2022-12-15T12:39:27.020Z,80.31
2022-12-15T12:40:26.743Z,80.31
2022-12-15T12:41:26.742Z,80.31
2022-12-15T12:42:26.719Z,80.31
2022-12-15T12:43:26.711Z,80.42
2022-12-15T12:44:26.712Z,80.59
2022-12-15T12:45:29.550Z,80.69
2022-12-15T12:46:26.682Z,80.69
2022-12-15T12:47:26.723Z,80.69
2022-12-15T12:48:26.649Z,80.69
2022-12-15T12:49:27.176Z,80.69
2022-12-15T12:50:26.840Z,80.69
2022-12-15T12:51:26.649Z,80.59
2022-12-15T12:52:26.621Z,80.38
2022-12-15T12:53:26.639Z,80.27
2022-12-15T12:54:26.598Z,80.07
2022-12-15T12:55:26.587Z,79.86